Time;durP1;ratioP1;P1;durP2;ratioP2;P2;SDS_P1;SDS_P2;PMS_P1;PMS_P2;Temp;Humidity;BMP_temperature;BMP_pressure;BME280_temperature;BME280_humidity;BME280_pressure;Samples;Min_cycle;Max_cycle;Signal;HPM_P1;HPM_P2
2022/09/17 00:01:04;;;;;;;4.43;2.70;;;12.50;99.90;;;;;;5090198;28;20215;-89
2022/09/17 00:03:54;;;;;;;4.72;2.63;;;12.50;99.90;;;;;;5089767;28;20246;-91
2022/09/17 00:06:43;;;;;;;4.55;2.90;;;12.50;99.90;;;;;;5088499;28;20219;-92
2022/09/17 00:09:31;;;;;;;3.83;2.80;;;12.60;99.90;;;;;;5087561;28;20249;-92
2022/09/17 00:12:19;;;;;;;4.82;2.72;;;12.60;99.90;;;;;;5091507;28;20273;-92
2022/09/17 00:15:10;;;;;;;4.75;3.40;;;12.70;99.90;;;;;;5106367;28;20215;-90
2022/09/17 00:17:59;;;;;;;4.75;2.85;;;12.60;99.90;;;;;;5119145;28;20229;-88
2022/09/17 00:20:47;;;;;;;4.43;2.70;;;12.60;99.90;;;;;;5102863;28;20651;-91
2022/09/17 00:23:36;;;;;;;4.95;2.50;;;12.60;99.90;;;;;;5090368;28;20223;-92
2022/09/17 00:26:25;;;;;;;6.50;2.85;;;12.60;99.90;;;;;;5083288;28;20230;-90
2022/09/17 00:29:15;;;;;;;4.28;2.50;;;12.60;99.90;;;;;;5088024;28;20231;-93
2022/09/17 00:32:05;;;;;;;4.03;2.42;;;12.50;99.90;;;;;;5086532;28;20334;-91
2022/09/17 00:34:53;;;;;;;3.45;2.20;;;12.50;99.90;;;;;;5073423;28;20373;-91
2022/09/17 00:37:41;;;;;;;6.05;2.70;;;12.40;99.90;;;;;;5083221;28;20268;-91
2022/09/17 00:40:30;;;;;;;4.30;2.75;;;12.40;99.90;;;;;;5087889;28;20234;-90
2022/09/17 00:43:33;;;;;;;4.65;2.70;;;12.40;99.90;;;;;;5086220;28;20223;-92
2022/09/17 00:46:30;;;;;;;5.03;2.70;;;12.40;99.90;;;;;;5089664;28;20230;-90
2022/09/17 00:49:23;;;;;;;4.28;2.70;;;12.40;99.90;;;;;;5085543;28;20234;-89
2022/09/17 00:52:15;;;;;;;6.85;2.60;;;12.40;99.90;;;;;;5084773;28;20227;-88
2022/09/17 00:55:10;;;;;;;5.38;2.55;;;12.30;99.90;;;;;;5087432;28;20292;-90
2022/09/17 00:58:02;;;;;;;3.65;2.78;;;12.30;99.90;;;;;;5086957;28;20638;-87
2022/09/17 01:00:50;;;;;;;4.75;2.63;;;12.30;99.90;;;;;;5090927;28;20212;-88
2022/09/17 01:03:38;;;;;;;4.28;2.50;;;12.30;99.90;;;;;;5088845;28;20674;-88
2022/09/17 01:06:34;;;;;;;5.18;2.70;;;12.30;99.90;;;;;;5085053;28;20547;-89
2022/09/17 01:09:35;;;;;;;4.72;2.80;;;12.30;99.90;;;;;;5082044;28;20226;-87
2022/09/17 01:12:43;;;;;;;4.63;2.65;;;12.30;99.90;;;;;;5086443;28;20311;-90
2022/09/17 01:15:39;;;;;;;5.68;2.60;;;12.30;99.90;;;;;;5074032;28;20734;-90
2022/09/17 01:18:50;;;;;;;4.38;2.22;;;12.20;99.90;;;;;;5088218;28;20706;-90
2022/09/17 01:21:51;;;;;;;3.67;2.22;;;12.30;99.90;;;;;;5071199;28;20223;-90
2022/09/17 01:24:48;;;;;;;5.95;2.70;;;12.30;99.90;;;;;;5090011;28;20211;-92
2022/09/17 01:28:13;;;;;;;4.32;2.80;;;12.20;99.90;;;;;;5088509;28;20310;-92
2022/09/17 01:31:12;;;;;;;5.82;2.70;;;12.20;99.90;;;;;;5085508;28;20214;-91
2022/09/17 01:34:11;;;;;;;9.60;2.97;;;12.20;99.90;;;;;;5087538;28;20211;-92
2022/09/17 01:37:04;;;;;;;4.88;2.25;;;12.20;99.90;;;;;;5067554;28;20309;-92
2022/09/17 01:40:01;;;;;;;7.10;2.65;;;12.20;99.90;;;;;;5086384;28;20246;-91
2022/09/17 01:42:57;;;;;;;4.72;2.60;;;12.20;99.90;;;;;;5068594;28;20241;-85
2022/09/17 01:45:50;;;;;;;3.85;2.42;;;12.20;99.90;;;;;;5082702;28;20223;-89
2022/09/17 01:48:43;;;;;;;4.63;2.60;;;12.20;99.90;;;;;;5084192;28;20257;-87
2022/09/17 01:51:37;;;;;;;5.40;2.60;;;12.10;99.90;;;;;;5066357;28;20449;-88
2022/09/17 01:54:31;;;;;;;4.35;2.63;;;12.10;99.90;;;;;;5050892;28;20595;-87
2022/09/17 01:57:25;;;;;;;6.00;2.83;;;12.10;99.90;;;;;;5061714;28;20318;-87
2022/09/17 02:00:16;;;;;;;5.18;2.70;;;12.00;99.90;;;;;;5066960;28;20232;-86
2022/09/17 02:03:10;;;;;;;6.07;2.53;;;12.00;99.90;;;;;;5068637;28;20240;-90
2022/09/17 02:06:05;;;;;;;4.68;2.60;;;12.00;99.90;;;;;;5052336;28;20874;-88
2022/09/17 02:08:57;;;;;;;5.60;2.92;;;11.90;99.90;;;;;;5067228;28;20288;-90
2022/09/17 02:11:51;;;;;;;4.40;2.50;;;11.80;99.90;;;;;;5068377;28;20377;-91
2022/09/17 02:14:47;;;;;;;4.05;2.42;;;11.90;99.90;;;;;;5067306;28;20307;-90
2022/09/17 02:17:39;;;;;;;3.25;2.47;;;11.70;99.90;;;;;;5066623;28;20330;-91
2022/09/17 02:20:40;;;;;;;5.53;2.40;;;11.70;99.90;;;;;;5064651;28;20353;-89
2022/09/17 02:23:35;;;;;;;4.10;2.67;;;11.60;99.90;;;;;;5052230;28;20303;-93
2022/09/17 02:26:26;;;;;;;6.13;2.55;;;11.70;99.90;;;;;;5065876;28;20606;-93
2022/09/17 02:29:23;;;;;;;8.40;2.47;;;11.80;99.90;;;;;;5062106;28;20646;-93
2022/09/17 02:32:12;;;;;;;3.03;2.17;;;11.70;99.90;;;;;;5074003;28;20222;-93
2022/09/17 02:35:01;;;;;;;6.97;2.85;;;11.70;99.90;;;;;;5049780;28;20216;-92
2022/09/17 02:37:51;;;;;;;4.05;2.40;;;11.70;99.90;;;;;;5068387;28;20220;-93
2022/09/17 02:40:59;;;;;;;2.85;2.20;;;11.80;99.90;;;;;;5060555;28;20220;-93
2022/09/17 02:43:57;;;;;;;7.78;2.80;;;11.70;99.90;;;;;;5070222;28;20241;-94
2022/09/17 02:47:10;;;;;;;3.67;2.53;;;11.80;99.90;;;;;;5071945;28;20789;-92
2022/09/17 02:50:15;;;;;;;4.35;2.30;;;11.80;99.90;;;;;;5082543;28;20236;-91
2022/09/17 02:53:19;;;;;;;4.40;2.55;;;11.70;99.90;;;;;;5068275;28;20329;-92
2022/09/17 02:56:19;;;;;;;3.78;2.50;;;11.60;99.90;;;;;;5084908;28;20245;-91
2022/09/17 02:59:17;;;;;;;4.50;2.55;;;11.60;99.90;;;;;;5088360;28;20212;-92
2022/09/17 03:02:10;;;;;;;5.78;2.78;;;11.50;99.90;;;;;;5109397;28;20219;-85
2022/09/17 03:05:00;;;;;;;6.70;2.55;;;11.50;99.90;;;;;;5097966;28;20322;-91
2022/09/17 03:07:49;;;;;;;5.43;2.75;;;11.50;99.90;;;;;;5068042;28;20307;-92
2022/09/17 03:10:39;;;;;;;5.47;2.58;;;11.50;99.90;;;;;;5068277;28;20228;-94
2022/09/17 03:13:28;;;;;;;6.57;2.42;;;11.50;99.90;;;;;;5068314;28;20520;-92
2022/09/17 03:16:17;;;;;;;4.28;2.50;;;11.50;99.90;;;;;;5069166;28;20224;-92
2022/09/17 03:19:05;;;;;;;4.55;2.78;;;11.40;99.90;;;;;;5068448;28;20297;-93
2022/09/17 03:21:54;;;;;;;4.72;2.58;;;11.40;99.90;;;;;;5072484;28;20917;-91
2022/09/17 03:24:42;;;;;;;6.63;2.90;;;11.40;99.90;;;;;;5070583;28;20654;-92
2022/09/17 03:27:32;;;;;;;8.40;2.63;;;11.40;99.90;;;;;;5067654;28;20227;-92
2022/09/17 03:30:22;;;;;;;4.53;2.90;;;11.40;99.90;;;;;;5065921;28;20626;-91
2022/09/17 03:33:10;;;;;;;4.70;3.00;;;11.20;99.90;;;;;;5067626;28;20308;-89
2022/09/17 03:35:59;;;;;;;4.38;2.83;;;11.20;99.90;;;;;;5067175;28;20228;-88
2022/09/17 03:38:47;;;;;;;4.65;2.72;;;11.20;99.90;;;;;;5080880;28;20230;-89
2022/09/17 03:41:36;;;;;;;4.68;3.00;;;11.20;99.90;;;;;;5070192;28;20303;-91
2022/09/17 03:44:24;;;;;;;6.68;2.97;;;11.10;99.90;;;;;;5063307;28;20230;-92
2022/09/17 03:47:15;;;;;;;7.50;3.20;;;11.10;99.90;;;;;;5072482;28;20552;-91
2022/09/17 03:50:05;;;;;;;5.22;2.95;;;11.20;99.90;;;;;;5071996;28;20603;-91
2022/09/17 03:52:53;;;;;;;5.03;3.03;;;11.10;99.90;;;;;;5069206;28;21393;-88
2022/09/17 03:55:42;;;;;;;5.90;2.97;;;11.20;99.90;;;;;;5058959;28;20228;-91
2022/09/17 03:58:31;;;;;;;5.57;3.00;;;11.10;99.90;;;;;;5065098;28;20247;-91
2022/09/17 04:01:19;;;;;;;7.55;3.25;;;11.10;99.90;;;;;;5069203;28;20262;-90
2022/09/17 04:04:09;;;;;;;6.18;3.00;;;11.00;99.90;;;;;;5070468;28;20775;-91
2022/09/17 04:06:58;;;;;;;5.47;3.22;;;11.00;99.90;;;;;;5065166;28;20310;-89
2022/09/17 04:09:47;;;;;;;4.57;3.20;;;11.00;99.90;;;;;;5055665;28;20275;-89
2022/09/17 04:12:35;;;;;;;7.97;3.30;;;10.90;99.90;;;;;;5067606;28;20280;-89
2022/09/17 04:15:23;;;;;;;5.97;3.30;;;11.00;99.90;;;;;;5050310;28;20238;-90
2022/09/17 04:18:12;;;;;;;6.82;3.03;;;10.80;99.90;;;;;;5068548;28;20232;-87
2022/09/17 04:21:02;;;;;;;7.13;3.20;;;10.90;99.90;;;;;;5067833;28;20295;-90
2022/09/17 04:23:50;;;;;;;4.35;3.00;;;10.90;99.90;;;;;;5066922;28;20234;-90
2022/09/17 04:26:39;;;;;;;5.82;3.42;;;11.00;99.90;;;;;;5054680;28;20243;-90
2022/09/17 04:29:27;;;;;;;4.38;3.08;;;11.00;99.90;;;;;;5068674;28;20228;-91
2022/09/17 04:32:16;;;;;;;4.28;2.85;;;10.90;99.90;;;;;;5062004;28;20303;-92
2022/09/17 04:35:05;;;;;;;4.35;3.13;;;11.00;99.90;;;;;;5068103;28;20299;-88
2022/09/17 04:37:55;;;;;;;5.90;3.22;;;11.00;99.90;;;;;;5054534;28;20629;-88
2022/09/17 04:40:45;;;;;;;7.95;3.33;;;11.00;99.90;;;;;;5070331;28;20661;-89
2022/09/17 04:43:33;;;;;;;8.15;3.78;;;11.00;99.90;;;;;;5066333;28;20305;-88
2022/09/17 04:46:22;;;;;;;4.72;3.17;;;10.90;99.90;;;;;;5068913;28;20323;-89
2022/09/17 04:49:11;;;;;;;6.32;3.20;;;10.90;99.90;;;;;;5056280;28;20228;-87
2022/09/17 04:51:59;;;;;;;6.95;3.15;;;10.80;99.90;;;;;;5085383;28;20247;-90
2022/09/17 04:54:49;;;;;;;6.15;3.30;;;10.90;99.90;;;;;;5086379;28;20234;-89
2022/09/17 04:57:37;;;;;;;6.47;3.35;;;11.00;99.90;;;;;;5075238;28;20247;-93
2022/09/17 05:00:26;;;;;;;6.03;3.05;;;11.00;99.90;;;;;;5084706;28;20763;-92
2022/09/17 05:03:15;;;;;;;8.25;3.70;;;11.10;99.90;;;;;;5089760;28;20216;-91
2022/09/17 05:06:03;;;;;;;4.82;3.00;;;11.10;99.90;;;;;;5085828;28;20222;-91
2022/09/17 05:08:52;;;;;;;3.83;3.00;;;11.10;99.90;;;;;;5087098;28;20887;-91
2022/09/17 05:11:42;;;;;;;6.20;3.60;;;11.10;99.90;;;;;;5072607;28;21409;-92
2022/09/17 05:14:30;;;;;;;5.95;3.45;;;11.20;99.90;;;;;;5084139;28;20215;-92
2022/09/17 05:17:18;;;;;;;5.53;3.33;;;11.20;99.90;;;;;;5082079;28;20295;-90
2022/09/17 05:20:08;;;;;;;5.82;3.10;;;11.20;99.90;;;;;;5085110;28;20605;-92
2022/09/17 05:22:57;;;;;;;6.13;3.28;;;11.20;99.90;;;;;;5071164;28;20697;-93
2022/09/17 05:25:45;;;;;;;3.85;3.00;;;11.20;99.90;;;;;;5073379;28;20276;-93
2022/09/17 05:28:35;;;;;;;5.40;3.35;;;11.30;99.90;;;;;;5072903;28;20306;-93
2022/09/17 05:31:24;;;;;;;5.72;3.15;;;11.50;99.90;;;;;;5082450;28;20253;-91
2022/09/17 05:34:12;;;;;;;4.60;3.03;;;11.60;99.90;;;;;;5090666;28;20284;-91
2022/09/17 05:37:01;;;;;;;4.90;3.00;;;11.70;99.90;;;;;;5087924;28;20238;-89
2022/09/17 05:39:49;;;;;;;4.75;2.95;;;11.80;99.90;;;;;;5092139;28;20426;-91
2022/09/17 05:42:38;;;;;;;7.03;3.20;;;12.00;99.90;;;;;;5107712;28;20241;-91
2022/09/17 05:45:28;;;;;;;5.20;2.90;;;12.10;99.90;;;;;;5112325;28;20211;-90
2022/09/17 05:48:16;;;;;;;7.32;3.00;;;12.20;99.90;;;;;;5092742;28;20230;-91
2022/09/17 05:51:05;;;;;;;4.32;2.90;;;12.10;99.90;;;;;;5069085;28;20326;-91
2022/09/17 05:53:54;;;;;;;4.93;2.80;;;12.10;99.90;;;;;;5068218;28;20250;-88
2022/09/17 05:56:43;;;;;;;4.03;2.90;;;12.20;99.90;;;;;;5067047;28;20216;-91
2022/09/17 05:59:32;;;;;;;4.75;2.70;;;12.40;99.90;;;;;;5080381;28;20883;-91
2022/09/17 06:02:22;;;;;;;5.43;2.70;;;12.40;99.90;;;;;;5078014;28;20307;-88
2022/09/17 06:05:10;;;;;;;3.78;3.05;;;12.50;99.90;;;;;;5061570;28;20220;-90
2022/09/17 06:07:59;;;;;;;7.88;3.05;;;12.60;99.90;;;;;;5066377;28;20220;-88
2022/09/17 06:10:48;;;;;;;4.18;2.70;;;12.70;99.90;;;;;;5074290;28;20228;-90
2022/09/17 06:13:36;;;;;;;4.40;2.30;;;12.80;99.90;;;;;;5073431;28;20269;-90
2022/09/17 06:16:25;;;;;;;4.55;2.25;;;13.00;99.90;;;;;;5068794;28;20224;-92
2022/09/17 06:19:15;;;;;;;6.05;2.60;;;13.10;99.90;;;;;;5070981;28;20231;-92
2022/09/17 06:22:04;;;;;;;6.60;3.35;;;13.10;99.90;;;;;;5071239;28;20594;-93
2022/09/17 06:24:52;;;;;;;9.35;2.67;;;13.10;99.90;;;;;;5071519;28;20230;-89
2022/09/17 06:27:42;;;;;;;3.50;2.03;;;13.10;99.90;;;;;;5067430;28;20329;-93
2022/09/17 06:30:30;;;;;;;6.97;2.10;;;13.10;99.90;;;;;;5071206;28;20284;-92
2022/09/17 06:33:19;;;;;;;8.57;2.30;;;13.10;99.90;;;;;;5073173;28;20223;-90
2022/09/17 06:36:10;;;;;;;7.65;2.45;;;13.30;99.90;;;;;;5070518;28;20216;-91
2022/09/17 06:39:01;;;;;;;7.43;1.85;;;13.30;99.90;;;;;;5068834;28;20223;-95
2022/09/17 06:41:50;;;;;;;4.43;1.92;;;13.40;99.90;;;;;;5073308;28;20217;-94
2022/09/17 06:44:39;;;;;;;18.00;2.83;;;13.50;99.90;;;;;;5075030;28;20299;-94
2022/09/17 06:47:28;;;;;;;11.93;2.50;;;13.60;99.90;;;;;;5070038;28;20362;-94
2022/09/17 06:50:17;;;;;;;8.80;2.67;;;13.60;99.90;;;;;;5079917;28;20695;-95
2022/09/17 06:53:06;;;;;;;7.65;2.22;;;13.50;99.90;;;;;;5074551;28;20304;-96
2022/09/17 06:55:57;;;;;;;11.18;2.50;;;13.60;99.90;;;;;;5092116;28;21424;-94
2022/09/17 06:58:51;;;;;;;13.15;2.42;;;13.70;99.90;;;;;;5092443;28;20377;-94
2022/09/17 07:01:40;;;;;;;6.57;2.13;;;13.70;99.90;;;;;;5079004;28;20327;-93
2022/09/17 07:04:28;;;;;;;5.72;1.95;;;13.70;99.90;;;;;;5076255;28;20227;-93
2022/09/17 07:07:17;;;;;;;4.30;2.40;;;14.00;99.90;;;;;;5094383;28;20376;-93
2022/09/17 07:10:08;;;;;;;3.83;1.80;;;14.20;99.90;;;;;;5075890;28;20215;-92
2022/09/17 07:12:57;;;;;;;5.63;2.30;;;14.50;99.90;;;;;;5090569;28;20219;-91
2022/09/17 07:15:52;;;;;;;11.13;2.40;;;14.60;99.90;;;;;;5093500;28;20219;-89
2022/09/17 07:18:42;;;;;;;6.57;2.42;;;14.70;99.90;;;;;;5074027;28;20229;-89
2022/09/17 07:21:30;;;;;;;7.18;1.95;;;14.40;99.90;;;;;;5083664;28;20215;-91
2022/09/17 07:24:19;;;;;;;4.68;1.98;;;14.40;99.90;;;;;;5086334;28;20246;-91
2022/09/17 07:27:09;;;;;;;5.05;2.65;;;14.30;99.90;;;;;;5076120;28;20234;-93
2022/09/17 07:29:58;;;;;;;7.30;2.22;;;14.20;99.90;;;;;;5087684;28;20216;-87
2022/09/17 07:32:46;;;;;;;6.25;2.25;;;14.10;99.90;;;;;;5085451;28;20301;-86
2022/09/17 07:35:35;;;;;;;4.65;2.38;;;14.00;99.90;;;;;;5087666;28;20223;-93
2022/09/17 07:38:24;;;;;;;7.82;2.50;;;14.00;99.90;;;;;;5084413;28;20228;-87
2022/09/17 07:41:16;;;;;;;5.68;2.60;;;13.90;99.90;;;;;;5093721;28;20304;-91
2022/09/17 07:44:06;;;;;;;6.53;2.42;;;13.80;99.90;;;;;;5086335;28;20220;-81
2022/09/17 07:46:55;;;;;;;3.78;2.60;;;13.80;99.90;;;;;;5084940;28;21013;-84
2022/09/17 07:49:43;;;;;;;6.22;2.30;;;13.80;99.90;;;;;;5084128;28;20239;-82
2022/09/17 07:52:31;;;;;;;7.22;2.88;;;13.70;99.90;;;;;;5081563;28;20251;-81
2022/09/17 07:55:20;;;;;;;9.20;3.35;;;13.70;99.90;;;;;;5085040;28;20226;-84
2022/09/17 07:58:09;;;;;;;4.55;2.85;;;13.80;99.90;;;;;;5086605;28;20224;-84
2022/09/17 08:01:02;;;;;;;8.68;3.03;;;13.80;99.90;;;;;;5084396;28;20228;-87
2022/09/17 08:03:52;;;;;;;7.85;2.67;;;13.80;99.90;;;;;;5089621;28;20234;-82
2022/09/17 08:06:41;;;;;;;6.72;2.50;;;13.80;99.90;;;;;;5085567;28;20235;-84
2022/09/17 08:09:30;;;;;;;3.45;2.05;;;13.60;99.90;;;;;;5084527;28;20452;-83
2022/09/17 08:12:18;;;;;;;3.08;2.25;;;13.60;99.90;;;;;;5079703;28;20216;-84
2022/09/17 08:15:08;;;;;;;4.55;2.50;;;13.60;99.90;;;;;;5080014;28;21227;-83
2022/09/17 08:17:57;;;;;;;5.13;2.20;;;13.70;99.90;;;;;;5071097;28;20334;-83
2022/09/17 08:20:46;;;;;;;62.20;4.75;;;13.60;99.90;;;;;;5099035;28;20266;-84
2022/09/17 08:23:36;;;;;;;13.57;3.00;;;13.70;99.90;;;;;;5071439;28;20226;-84
2022/09/17 08:26:25;;;;;;;10.25;2.72;;;13.70;99.90;;;;;;5083505;28;20747;-83
2022/09/17 08:29:14;;;;;;;3.67;2.58;;;13.70;99.90;;;;;;5065804;28;20305;-83
2022/09/17 08:32:03;;;;;;;7.05;2.85;;;13.70;99.90;;;;;;5078298;28;20302;-84
2022/09/17 08:34:53;;;;;;;3.33;2.60;;;13.70;99.90;;;;;;5078377;28;20280;-84
2022/09/17 08:37:46;;;;;;;11.50;2.65;;;13.70;99.90;;;;;;5079579;28;20231;-83
2022/09/17 08:40:43;;;;;;;5.78;2.88;;;13.60;99.90;;;;;;5078769;28;20310;-83
2022/09/17 08:43:36;;;;;;;5.95;2.50;;;13.60;99.90;;;;;;5077962;28;20314;-83
2022/09/17 08:46:25;;;;;;;7.03;2.65;;;13.80;99.90;;;;;;5078974;28;20364;-84
2022/09/17 08:49:25;;;;;;;5.45;2.50;;;14.00;99.90;;;;;;5077496;28;20227;-84
2022/09/17 08:52:36;;;;;;;7.43;2.53;;;14.10;99.90;;;;;;5078475;28;20329;-83
2022/09/17 08:55:36;;;;;;;4.15;2.28;;;14.10;99.90;;;;;;5077690;28;20341;-85
2022/09/17 08:58:37;;;;;;;6.20;2.47;;;14.10;99.90;;;;;;5077833;28;20311;-83
2022/09/17 09:01:34;;;;;;;4.10;2.20;;;14.20;99.90;;;;;;5077462;28;20287;-84
2022/09/17 09:04:50;;;;;;;8.65;2.78;;;14.30;99.90;;;;;;5066875;28;20330;-83
2022/09/17 09:07:44;;;;;;;4.78;1.70;;;15.00;99.90;;;;;;5061830;28;20256;-84
2022/09/17 09:10:44;;;;;;;5.28;2.42;;;15.10;99.90;;;;;;5079972;28;20318;-83
2022/09/17 09:13:36;;;;;;;3.28;1.90;;;15.10;99.90;;;;;;5065920;28;20432;-84
2022/09/17 09:16:27;;;;;;;3.05;1.67;;;15.20;99.90;;;;;;5076955;28;20314;-84
2022/09/17 09:19:21;;;;;;;3.80;1.90;;;15.10;99.90;;;;;;5078885;28;20227;-84
2022/09/17 09:22:22;;;;;;;6.03;2.10;;;15.10;99.90;;;;;;5077943;28;20227;-85
2022/09/17 09:25:22;;;;;;;3.78;1.98;;;14.80;99.90;;;;;;5073847;28;20309;-83
2022/09/17 09:28:25;;;;;;;3.40;1.80;;;14.60;99.90;;;;;;5076887;28;21084;-85
2022/09/17 09:31:33;;;;;;;3.20;2.10;;;14.60;99.90;;;;;;5065170;28;20222;-84
2022/09/17 09:34:22;;;;;;;3.22;1.80;;;14.70;99.90;;;;;;5078950;28;20227;-82
2022/09/17 09:37:16;;;;;;;3.42;2.00;;;14.80;99.90;;;;;;5075303;28;20318;-82
2022/09/17 09:40:25;;;;;;;1.80;1.60;;;15.10;99.90;;;;;;5064260;28;20974;-83
2022/09/17 09:43:19;;;;;;;4.05;2.03;;;15.60;99.90;;;;;;5078520;28;20317;-82
2022/09/17 09:46:25;;;;;;;2.95;1.80;;;15.70;99.90;;;;;;5080130;28;20223;-83
2022/09/17 09:49:25;;;;;;;3.90;1.92;;;15.90;99.90;;;;;;5077119;28;20228;-84
2022/09/17 09:52:32;;;;;;;6.05;1.83;;;15.80;99.90;;;;;;5064442;28;20229;-86
2022/09/17 09:55:47;;;;;;;2.88;1.90;;;15.60;99.90;;;;;;5078924;28;20279;-84
2022/09/17 09:58:37;;;;;;;2.17;1.85;;;15.20;99.90;;;;;;5078163;28;20304;-84
2022/09/17 10:01:28;;;;;;;3.58;2.05;;;14.80;99.90;;;;;;5080079;28;20223;-83
2022/09/17 10:04:20;;;;;;;2.75;2.00;;;14.70;99.90;;;;;;5063433;28;20224;-85
2022/09/17 10:07:11;;;;;;;2.53;1.70;;;14.60;99.90;;;;;;5073393;28;20231;-83
2022/09/17 10:10:09;;;;;;;2.30;1.65;;;14.80;99.90;;;;;;5078257;28;20703;-85
2022/09/17 10:13:07;;;;;;;2.83;1.85;;;14.90;99.90;;;;;;5079175;28;20225;-83
2022/09/17 10:15:56;;;;;;;3.38;1.98;;;14.70;99.90;;;;;;5078386;28;21110;-84
2022/09/17 10:18:45;;;;;;;5.07;2.20;;;14.70;99.90;;;;;;5077469;28;20211;-84
2022/09/17 10:21:35;;;;;;;4.13;1.77;;;14.60;99.90;;;;;;5076784;28;20280;-83
2022/09/17 10:24:26;;;;;;;11.07;2.90;;;14.60;99.90;;;;;;5079996;28;20480;-85
2022/09/17 10:27:17;;;;;;;14.40;7.95;;;14.70;99.90;;;;;;5077976;28;20223;-83
2022/09/17 10:30:18;;;;;;;3.60;2.30;;;14.60;99.90;;;;;;5079723;28;20338;-84
2022/09/17 10:33:23;;;;;;;2.65;1.83;;;14.50;99.90;;;;;;5078836;28;20313;-83
2022/09/17 10:36:13;;;;;;;3.88;2.00;;;14.40;99.90;;;;;;5063636;28;20223;-83
2022/09/17 10:39:19;;;;;;;3.08;2.20;;;14.20;99.90;;;;;;5077096;28;20220;-83
2022/09/17 10:42:14;;;;;;;3.90;2.13;;;14.10;99.90;;;;;;5080050;28;20388;-84
2022/09/17 10:45:02;;;;;;;2.55;1.90;;;14.00;99.90;;;;;;5077898;28;20234;-83
2022/09/17 10:47:53;;;;;;;3.75;2.38;;;14.10;99.90;;;;;;5071310;28;20222;-85
2022/09/17 10:50:48;;;;;;;4.25;2.20;;;14.10;99.90;;;;;;5097903;28;20231;-82
2022/09/17 10:54:13;;;;;;;5.53;2.28;;;14.30;99.90;;;;;;5086181;28;20415;-82
2022/09/17 10:57:04;;;;;;;4.13;2.20;;;14.50;99.90;;;;;;5081597;28;20309;-83
2022/09/17 11:00:10;;;;;;;4.63;2.75;;;14.80;99.90;;;;;;5078901;28;20319;-79
2022/09/17 11:03:38;;;;;;;7.35;2.88;;;14.70;99.90;;;;;;5079458;28;20217;-82
2022/09/17 11:06:55;;;;;;;3.10;2.35;;;14.70;99.90;;;;;;5082472;28;20812;-84
2022/09/17 11:09:53;;;;;;;8.40;2.70;;;14.50;99.90;;;;;;5083923;28;20708;-94
2022/09/17 11:12:59;;;;;;;7.70;2.70;;;14.40;99.90;;;;;;5082180;28;20231;-85
2022/09/17 11:16:02;;;;;;;4.68;2.47;;;14.60;99.90;;;;;;5087444;28;20276;-80
2022/09/17 11:18:58;;;;;;;4.72;2.10;;;14.70;99.90;;;;;;5077269;28;20384;-82
2022/09/17 11:21:50;;;;;;;3.72;2.42;;;14.90;99.90;;;;;;5075577;28;20352;-82
2022/09/17 11:24:53;;;;;;;2.58;1.80;;;15.10;99.90;;;;;;5073887;28;20322;-84
2022/09/17 11:28:03;;;;;;;5.38;2.33;;;15.00;99.90;;;;;;5064979;28;20224;-83
2022/09/17 11:31:05;;;;;;;2.90;1.80;;;14.90;99.90;;;;;;5081388;28;20208;-85
2022/09/17 11:34:11;;;;;;;5.88;2.10;;;14.70;99.90;;;;;;5079494;28;20219;-83
2022/09/17 11:37:06;;;;;;;5.35;1.92;;;14.70;99.90;;;;;;5080529;28;20712;-83
2022/09/17 11:40:00;;;;;;;3.28;2.00;;;14.60;99.90;;;;;;5078013;28;20216;-82
2022/09/17 11:42:53;;;;;;;3.03;2.00;;;14.60;99.90;;;;;;5080139;28;20640;-81
2022/09/17 11:45:51;;;;;;;2.95;2.20;;;14.70;99.90;;;;;;5064697;28;20219;-82
2022/09/17 11:48:46;;;;;;;5.40;2.15;;;14.80;99.90;;;;;;5061829;28;20223;-81
2022/09/17 11:51:40;;;;;;;2.95;1.95;;;15.00;99.90;;;;;;5080829;28;20308;-83
2022/09/17 11:54:33;;;;;;;2.95;1.75;;;15.30;99.90;;;;;;5087845;28;21015;-89
2022/09/17 11:57:26;;;;;;;2.60;1.50;;;15.50;99.90;;;;;;5101174;28;20223;-92
2022/09/17 12:00:18;;;;;;;3.47;1.70;;;15.80;99.90;;;;;;5092766;28;20219;-92
2022/09/17 12:03:13;;;;;;;2.28;1.70;;;15.70;99.90;;;;;;5088060;28;20219;-96
2022/09/17 12:06:09;;;;;;;2.25;1.90;;;15.90;99.90;;;;;;5091925;28;20308;-94
2022/09/17 12:09:06;;;;;;;2.60;1.90;;;15.90;99.90;;;;;;5092407;28;20231;-94
2022/09/17 12:12:01;;;;;;;1.92;1.58;;;15.70;99.90;;;;;;5075410;28;20259;-94
2022/09/17 12:14:54;;;;;;;3.25;2.00;;;15.50;99.90;;;;;;5090461;28;20329;-91
2022/09/17 12:17:49;;;;;;;4.32;1.90;;;15.30;99.90;;;;;;5075890;28;20244;-92
2022/09/17 12:20:40;;;;;;;2.22;1.70;;;15.30;99.90;;;;;;5088463;28;20369;-92
2022/09/17 12:23:37;;;;;;;2.85;1.77;;;15.30;99.90;;;;;;5090671;28;20266;-92
2022/09/17 12:26:44;;;;;;;2.33;1.48;;;15.40;99.90;;;;;;5086897;28;20232;-93
2022/09/17 12:29:55;;;;;;;5.70;2.40;;;15.40;99.90;;;;;;5086866;28;20337;-94
2022/09/17 12:33:11;;;;;;;9.48;2.40;;;15.30;99.90;;;;;;5085287;28;20227;-95
2022/09/17 12:36:33;;;;;;;7.55;1.77;;;15.30;99.90;;;;;;5086582;28;20234;-94
2022/09/17 12:39:54;;;;;;;4.28;1.90;;;15.30;99.90;;;;;;5089487;28;20236;-95
2022/09/17 12:42:57;;;;;;;2.40;1.75;;;15.30;99.90;;;;;;5089785;28;20242;-93
2022/09/17 12:46:11;;;;;;;2.15;1.75;;;15.30;99.90;;;;;;5087059;28;20288;-95
2022/09/17 12:49:23;;;;;;;4.28;2.03;;;15.40;99.90;;;;;;5090376;28;20223;-92
2022/09/17 12:52:23;;;;;;;3.35;2.60;;;15.50;99.90;;;;;;5083108;28;20223;-91
2022/09/17 12:55:27;;;;;;;6.80;2.42;;;15.40;99.90;;;;;;5077676;28;20216;-93
2022/09/17 12:58:31;;;;;;;2.90;2.10;;;15.50;99.90;;;;;;5071230;28;20227;-93
2022/09/17 13:01:26;;;;;;;2.45;2.22;;;15.50;99.90;;;;;;5078438;28;20223;-93
2022/09/17 13:04:46;;;;;;;12.43;3.30;;;15.50;99.90;;;;;;5075126;28;20223;-95
2022/09/17 13:08:13;;;;;;;15.95;2.53;;;15.40;99.90;;;;;;5099563;28;20220;-93
2022/09/17 13:11:26;;;;;;;3.78;2.30;;;15.40;99.90;;;;;;5094279;28;20329;-92
2022/09/17 13:14:24;;;;;;;3.05;2.22;;;15.40;99.90;;;;;;5084208;28;20222;-91
2022/09/17 13:17:24;;;;;;;2.20;2.00;;;15.30;99.90;;;;;;5099753;28;20702;-93
2022/09/17 13:20:17;;;;;;;5.07;2.38;;;15.20;99.90;;;;;;5087436;28;21396;-94
2022/09/17 13:23:07;;;;;;;4.38;2.30;;;15.10;99.90;;;;;;5087039;28;20732;-94
2022/09/17 13:25:56;;;;;;;2.90;2.58;;;15.20;99.90;;;;;;5078013;28;20658;-94
2022/09/17 13:28:46;;;;;;;5.63;2.28;;;15.20;99.90;;;;;;5090144;28;20357;-94
2022/09/17 13:31:49;;;;;;;3.53;2.20;;;15.10;99.90;;;;;;5073669;28;20220;-93
2022/09/17 13:34:39;;;;;;;3.15;2.00;;;15.10;99.90;;;;;;5089024;28;20234;-94
2022/09/17 13:37:29;;;;;;;2.55;2.13;;;15.00;99.90;;;;;;5070724;28;20224;-94
2022/09/17 13:40:22;;;;;;;3.08;2.22;;;15.10;99.90;;;;;;5077611;28;20296;-96
2022/09/17 13:43:13;;;;;;;2.70;2.08;;;15.10;99.90;;;;;;5072085;28;21093;-95
2022/09/17 13:46:14;;;;;;;3.25;1.90;;;15.20;99.90;;;;;;5063917;28;20227;-94
2022/09/17 13:49:11;;;;;;;2.08;1.88;;;15.20;99.90;;;;;;5088339;28;20230;-95
2022/09/17 13:52:00;;;;;;;2.55;1.70;;;15.20;99.90;;;;;;5087195;28;20220;-94
2022/09/17 13:54:49;;;;;;;2.17;1.75;;;15.10;99.90;;;;;;5090729;28;20219;-95
2022/09/17 13:57:51;;;;;;;4.07;1.95;;;15.10;99.90;;;;;;5070245;28;20226;-94
2022/09/17 14:00:51;;;;;;;2.47;1.77;;;15.10;99.90;;;;;;5088430;28;20313;-96
2022/09/17 14:03:54;;;;;;;4.07;1.98;;;15.10;99.90;;;;;;5077534;28;20302;-95
2022/09/17 14:06:52;;;;;;;4.95;2.03;;;15.10;99.90;;;;;;5085884;28;20693;-94
2022/09/17 14:09:55;;;;;;;3.65;1.73;;;15.10;99.90;;;;;;5086208;28;20227;-95
2022/09/17 14:12:55;;;;;;;5.47;3.10;;;15.20;99.90;;;;;;5089442;28;20696;-95
2022/09/17 14:16:00;;;;;;;4.68;2.67;;;15.20;99.90;;;;;;5074074;28;20208;-95
2022/09/17 14:18:58;;;;;;;3.97;2.35;;;15.20;99.90;;;;;;5073028;28;20276;-95
2022/09/17 14:22:02;;;;;;;3.55;2.70;;;15.20;99.90;;;;;;5075235;28;20246;-95
2022/09/17 14:24:53;;;;;;;3.83;2.40;;;15.30;99.90;;;;;;5084995;28;20215;-95
2022/09/17 14:27:54;;;;;;;5.00;2.38;;;15.30;99.90;;;;;;5068318;28;20235;-95
2022/09/17 14:30:44;;;;;;;3.88;3.03;;;15.40;99.90;;;;;;5076383;28;20226;-96
2022/09/17 14:33:33;;;;;;;3.60;2.75;;;15.40;99.90;;;;;;5079965;28;20227;-94
2022/09/17 14:36:23;;;;;;;3.45;2.90;;;15.50;99.90;;;;;;5093919;28;20211;-95
2022/09/17 14:39:22;;;;;;;3.65;2.97;;;15.50;99.90;;;;;;5093574;28;20965;-95
2022/09/17 14:42:17;;;;;;;4.65;3.97;;;15.40;99.90;;;;;;5092343;28;20557;-94
2022/09/17 14:45:16;;;;;;;4.55;3.20;;;15.40;99.90;;;;;;5088751;28;20578;-95
2022/09/17 14:48:28;;;;;;;4.25;2.88;;;15.40;99.90;;;;;;5076449;28;20226;-95
2022/09/17 14:51:27;;;;;;;5.03;2.90;;;15.40;99.90;;;;;;5074609;28;20238;-95
2022/09/17 14:54:19;;;;;;;2.92;2.28;;;15.30;99.90;;;;;;5092843;28;20223;-95
2022/09/17 14:57:22;;;;;;;2.70;2.50;;;15.40;99.90;;;;;;5090932;28;20211;-95
2022/09/17 15:00:34;;;;;;;3.45;2.90;;;15.40;99.90;;;;;;5088836;28;20847;-96
2022/09/17 15:03:23;;;;;;;4.53;2.60;;;15.40;99.90;;;;;;5071959;28;20318;-94
2022/09/17 15:06:20;;;;;;;2.97;2.40;;;15.50;99.90;;;;;;5093004;28;20304;-94